Atlanta, Texas
Current Conditions -  °F | °C
As of 6:53 AM on Monday 22 Dec 2014 (Local Time) from KTXK Reporting Station
Overcast Overcast  
Wind Chill: 50°   Ceiling: 700
Heat Index: 50°   Visibility: 8mi
Dew Point: 49°   Wind: 13mph
Humidity: 96%   Direction: 160°SSE
Pressure: 29.7"   Gusts: NA
Location:  33.12°N, 94.17°W
Report Text: KTXK 221253Z 16011KT 8SM OVC007 10/09 A2970 RMK AO2 CIG 006V010 SLP057 T01000094
Loading
Personal Weather Stations






























Interactive Weather Map New forecast layout! Learn more

10-Day Weather Forecast

Advertisements
Track Severe Weather on mobile